Time;durP1;ratioP1;P1;durP2;ratioP2;P2;SDS_P1;SDS_P2;PMS_P1;PMS_P2;Temp;Humidity;BMP_temperature;BMP_pressure;BME280_temperature;BME280_humidity;BME280_pressure;Samples;Min_cycle;Max_cycle;Signal;HPM_P1;HPM_P2
2022/05/02 00:01:07;;;;;;;14.67;9.67;;;;;;;5.57;60.90;99137.98;2255097;79;20927;-82
2022/05/02 00:04:07;;;;;;;19.30;10.53;;;;;;;5.48;60.98;99142.41;2255282;79;20950;-80
2022/05/02 00:07:07;;;;;;;17.33;10.33;;;;;;;5.36;61.11;99136.38;2255038;79;21001;-80
2022/05/02 00:10:08;;;;;;;15.43;9.90;;;;;;;5.27;61.50;99141.63;2255192;78;20935;-80
2022/05/02 00:13:09;;;;;;;17.93;9.50;;;;;;;5.20;61.61;99144.39;2255055;79;20979;-82
2022/05/02 00:16:08;;;;;;;22.63;11.10;;;;;;;5.22;61.99;99141.45;2255305;79;21266;-81
2022/05/02 00:19:09;;;;;;;17.13;9.87;;;;;;;5.18;61.96;99139.95;2255157;79;20911;-82
2022/05/02 00:22:09;;;;;;;14.13;9.93;;;;;;;5.16;62.26;99139.89;2255518;79;20938;-81
2022/05/02 00:25:10;;;;;;;16.57;10.23;;;;;;;5.11;62.58;99134.95;2255159;79;21318;-80
2022/05/02 00:28:10;;;;;;;17.47;9.83;;;;;;;5.05;62.71;99136.90;2255446;79;20972;-80
2022/05/02 00:31:10;;;;;;;13.40;10.60;;;;;;;5.03;63.06;99135.95;2255382;79;21334;-82
2022/05/02 00:34:11;;;;;;;18.37;11.00;;;;;;;5.00;63.20;99137.14;2255467;79;20915;-80
2022/05/02 00:37:14;;;;;;;17.80;10.60;;;;;;;4.97;63.45;99135.72;2255180;79;20937;-81
2022/05/02 00:40:12;;;;;;;17.00;9.77;;;;;;;4.91;63.72;99137.20;2255216;79;21357;-80
2022/05/02 00:43:12;;;;;;;18.73;11.03;;;;;;;4.90;63.67;99138.90;2255447;79;20899;-80
2022/05/02 00:46:12;;;;;;;16.70;10.50;;;;;;;4.79;63.64;99137.19;2255345;79;20876;-80
2022/05/02 00:49:15;;;;;;;18.50;11.50;;;;;;;4.69;63.91;99135.47;2255179;79;21019;-80
2022/05/02 00:52:13;;;;;;;20.13;12.13;;;;;;;4.61;63.99;99140.75;2255499;79;20931;-80
2022/05/02 00:55:14;;;;;;;17.83;10.73;;;;;;;4.56;64.34;99138.40;2254971;79;21318;-82
2022/05/02 00:58:14;;;;;;;18.07;11.07;;;;;;;4.53;64.71;99136.98;2255297;79;20905;-80
2022/05/02 01:01:14;;;;;;;15.53;11.37;;;;;;;4.47;64.73;99134.63;2255471;79;20919;-81
2022/05/02 01:04:15;;;;;;;15.37;11.07;;;;;;;4.43;64.98;99136.61;2255234;79;21274;-81
2022/05/02 01:07:21;;;;;;;21.17;11.23;;;;;;;4.41;65.29;99139.55;2255139;79;20951;-81
2022/05/02 01:10:22;;;;;;;17.30;10.97;;;;;;;4.36;65.53;99139.77;2252759;77;21418;-81
2022/05/02 01:13:22;;;;;;;16.50;11.07;;;;;;;4.32;65.71;99130.09;2248043;79;20896;-79
2022/05/02 01:16:23;;;;;;;15.13;11.23;;;;;;;4.31;65.76;99133.91;2248528;79;20936;-81
2022/05/02 01:19:23;;;;;;;17.43;10.37;;;;;;;4.32;66.06;99135.26;2248335;79;21244;-80
2022/05/02 01:22:23;;;;;;;19.60;10.57;;;;;;;4.28;66.08;99129.91;2248334;79;20899;-79
2022/05/02 01:25:24;;;;;;;18.43;11.13;;;;;;;4.21;65.87;99131.35;2248354;79;20950;-79
2022/05/02 01:28:24;;;;;;;18.57;11.27;;;;;;;4.13;66.05;99130.16;2248420;79;20869;-79
2022/05/02 01:31:24;;;;;;;17.27;11.80;;;;;;;4.05;66.28;99125.08;2248498;79;20903;-80
2022/05/02 01:34:25;;;;;;;16.10;10.73;;;;;;;3.99;66.55;99129.98;2248176;79;20902;-81
2022/05/02 01:37:25;;;;;;;18.20;11.37;;;;;;;3.97;66.81;99138.96;2247994;79;20959;-80
2022/05/02 01:40:26;;;;;;;18.67;11.43;;;;;;;3.96;66.98;99140.19;2248180;79;21279;-79
2022/05/02 01:43:27;;;;;;;16.83;11.07;;;;;;;3.94;67.01;99141.83;2247897;78;20979;-79
2022/05/02 01:46:27;;;;;;;18.00;10.90;;;;;;;3.88;66.89;99138.98;2248482;79;20903;-79
2022/05/02 01:49:27;;;;;;;15.57;10.57;;;;;;;3.78;67.20;99126.97;2248327;79;20880;-80
2022/05/02 01:52:27;;;;;;;13.30;10.43;;;;;;;3.72;67.45;99124.13;2248162;79;20900;-79
2022/05/02 01:55:28;;;;;;;19.70;11.33;;;;;;;3.78;67.80;99137.30;2248444;79;20935;-81
2022/05/02 01:58:28;;;;;;;15.37;11.10;;;;;;;3.79;67.65;99133.90;2248308;79;20899;-79
2022/05/02 02:01:29;;;;;;;15.20;10.20;;;;;;;3.71;67.41;99133.09;2248171;79;20911;-79
2022/05/02 02:07:48;;;;;;;13.27;9.83;;;;;;;3.48;67.85;99133.38;2248188;78;20999;-80
2022/05/02 02:10:48;;;;;;;15.37;10.20;;;;;;;3.48;68.34;99129.51;2250800;78;21310;-79
2022/05/02 02:13:49;;;;;;;16.90;10.67;;;;;;;3.47;68.41;99132.91;2255460;79;20919;-79
2022/05/02 02:16:49;;;;;;;15.37;10.93;;;;;;;3.44;68.58;99125.00;2255331;79;20953;-79
2022/05/02 02:19:49;;;;;;;16.73;10.37;;;;;;;3.39;68.45;99127.78;2255480;79;20966;-79
2022/05/02 02:22:50;;;;;;;16.13;10.57;;;;;;;3.31;68.51;99126.15;2255319;79;21370;-79
2022/05/02 02:25:50;;;;;;;14.33;10.67;;;;;;;3.30;68.87;99128.66;2255243;79;20908;-80
2022/05/02 02:28:51;;;;;;;14.17;10.50;;;;;;;3.33;69.08;99130.09;2255328;79;20899;-79
2022/05/02 02:31:51;;;;;;;18.87;9.70;;;;;;;3.32;69.07;99122.75;2255283;79;20884;-80
2022/05/02 02:34:52;;;;;;;14.43;9.83;;;;;;;3.30;68.80;99123.50;2255255;79;20872;-80
2022/05/02 02:37:52;;;;;;;14.90;9.47;;;;;;;3.25;68.85;99119.42;2255211;79;21006;-79
2022/05/02 02:40:52;;;;;;;16.00;9.97;;;;;;;3.20;69.09;99119.22;2255322;79;21247;-79
2022/05/02 02:43:54;;;;;;;16.17;10.90;;;;;;;3.13;69.28;99117.17;2255179;79;20936;-79
2022/05/02 02:46:53;;;;;;;19.27;9.90;;;;;;;3.09;69.24;99121.72;2255546;79;20872;-81
2022/05/02 02:49:54;;;;;;;13.63;9.93;;;;;;;3.06;69.35;99118.12;2255780;79;20939;-81
2022/05/02 02:52:54;;;;;;;14.43;10.03;;;;;;;3.04;69.46;99115.88;2255347;79;20991;-81
2022/05/02 02:55:54;;;;;;;13.10;9.30;;;;;;;3.03;69.71;99117.58;2255604;79;20899;-81
2022/05/02 02:58:55;;;;;;;14.90;10.20;;;;;;;3.00;69.59;99125.17;2255210;79;20951;-81
2022/05/02 03:01:55;;;;;;;14.23;10.40;;;;;;;2.94;69.42;99122.31;2255249;79;20942;-80
2022/05/02 03:08:15;;;;;;;15.53;10.03;;;;;;;2.84;69.77;99124.87;2255116;79;20944;-81
2022/05/02 03:11:15;;;;;;;14.17;10.13;;;;;;;2.84;69.92;99131.31;2251957;77;21351;-81
2022/05/02 03:14:16;;;;;;;16.57;9.93;;;;;;;2.83;70.02;99130.84;2248165;79;20935;-80
2022/05/02 03:17:16;;;;;;;14.13;10.10;;;;;;;2.84;70.16;99127.45;2248167;79;20975;-81
2022/05/02 03:20:16;;;;;;;12.73;9.97;;;;;;;2.90;70.48;99125.56;2248141;79;20951;-81
2022/05/02 03:23:17;;;;;;;13.40;9.83;;;;;;;2.94;70.39;99129.16;2247925;79;20947;-81
2022/05/02 03:26:20;;;;;;;13.17;10.10;;;;;;;2.97;70.52;99128.90;2248132;79;20908;-80
2022/05/02 03:29:20;;;;;;;27.47;10.20;;;;;;;2.98;70.29;99123.34;2248194;79;20942;-81
2022/05/02 03:32:21;;;;;;;13.00;9.53;;;;;;;2.95;70.05;99130.52;2248334;79;20907;-82
2022/05/02 03:35:22;;;;;;;18.97;10.37;;;;;;;2.92;69.97;99123.05;2247946;79;20979;-82
2022/05/02 03:38:22;;;;;;;55.60;11.57;;;;;;;2.94;70.86;99124.89;2248324;79;21314;-83
2022/05/02 03:41:23;;;;;;;21.80;9.80;;;;;;;3.03;70.20;99125.31;2248901;79;20916;-83
2022/05/02 03:44:24;;;;;;;14.73;9.07;;;;;;;3.00;70.15;99117.84;2249003;79;20923;-83
2022/05/02 03:47:24;;;;;;;48.63;10.80;;;;;;;3.12;70.65;99118.39;2248791;79;20976;-82
2022/05/02 03:50:24;;;;;;;19.47;9.67;;;;;;;3.15;70.62;99115.95;2248095;79;21054;-82
2022/05/02 03:53:24;;;;;;;13.50;9.50;;;;;;;3.25;70.56;99117.25;2248305;79;20944;-81
2022/05/02 03:56:25;;;;;;;18.30;10.27;;;;;;;3.25;70.56;99117.25;2248459;79;21286;-82
2022/05/02 03:59:25;;;;;;;14.07;10.70;;;;;;;3.32;70.64;99120.58;2247655;79;20947;-82
2022/05/02 04:02:26;;;;;;;80.90;12.77;;;;;;;3.41;70.71;99105.50;2248620;79;20951;-81
2022/05/02 04:05:29;;;;;;;14.20;9.30;;;;;;;3.51;70.75;99124.08;2248378;79;21263;-82
2022/05/02 04:08:29;;;;;;;15.90;9.73;;;;;;;3.63;70.51;99124.13;2248479;79;20980;-82
2022/05/02 04:11:30;;;;;;;12.33;9.40;;;;;;;3.77;70.60;99122.63;2254622;78;20950;-82
2022/05/02 04:14:30;;;;;;;13.00;9.43;;;;;;;3.97;70.58;99130.33;2262982;79;20986;-82
2022/05/02 04:17:30;;;;;;;12.57;9.93;;;;;;;4.17;70.41;99123.00;2262107;79;21010;-81
2022/05/02 04:20:31;;;;;;;10.97;9.17;;;;;;;4.35;70.10;99130.25;2262453;79;20927;-81
2022/05/02 04:23:34;;;;;;;107.27;15.43;;;;;;;4.58;70.01;99125.13;2262446;79;21314;-81
2022/05/02 04:26:34;;;;;;;77.97;13.90;;;;;;;4.87;71.53;99131.43;2261864;79;20947;-80
2022/05/02 04:29:34;;;;;;;37.43;10.40;;;;;;;6.26;73.59;99121.47;2261119;79;20996;-80
2022/05/02 04:32:35;;;;;;;155.13;19.73;;;;;;;7.59;72.38;99126.44;2260627;79;20928;-82
2022/05/02 04:35:35;;;;;;;33.63;9.90;;;;;;;9.38;71.12;99117.48;2260050;79;20931;-83
2022/05/02 04:38:36;;;;;;;15.47;10.00;;;;;;;11.52;63.19;99117.24;2261580;79;21013;-83
2022/05/02 04:41:36;;;;;;;24.87;9.87;;;;;;;10.83;59.64;99118.45;2261296;79;20959;-82
2022/05/02 04:44:37;;;;;;;12.70;8.73;;;;;;;10.13;59.04;99127.66;2261935;79;21310;-82
2022/05/02 04:47:37;;;;;;;27.53;9.73;;;;;;;9.55;59.53;99123.95;2261665;79;21001;-81
2022/05/02 04:50:37;;;;;;;11.93;8.17;;;;;;;9.35;61.34;99131.75;2261515;79;20927;-83
2022/05/02 04:53:38;;;;;;;12.73;9.00;;;;;;;10.02;61.70;99130.93;2261797;79;20958;-82
2022/05/02 04:56:38;;;;;;;23.17;10.10;;;;;;;10.10;59.30;99127.61;2262070;79;21648;-83
2022/05/02 04:59:38;;;;;;;65.17;12.67;;;;;;;9.95;59.09;99130.36;2261076;79;21017;-82
2022/05/02 05:02:39;;;;;;;19.93;12.53;;;;;;;9.92;58.64;99130.30;2261851;79;20954;-82
2022/05/02 05:05:39;;;;;;;32.13;19.43;;;;;;;9.95;58.56;99127.75;2262055;79;20911;-82
2022/05/02 05:08:40;;;;;;;34.37;20.60;;;;;;;10.05;58.68;99131.86;2260130;79;20990;-82
2022/05/02 05:11:40;;;;;;;20.17;13.27;;;;;;;10.21;58.87;99133.93;2254803;79;20963;-80
2022/05/02 05:18:01;;;;;;;15.70;9.87;;;;;;;10.69;57.51;99134.33;2225049;79;21006;-82
2022/05/02 05:21:02;;;;;;;12.97;9.43;;;;;;;10.98;57.36;99137.39;2247225;79;20942;-82
2022/05/02 05:24:02;;;;;;;12.20;9.20;;;;;;;11.13;56.88;99131.08;2248363;79;20962;-82
2022/05/02 05:27:02;;;;;;;16.57;9.43;;;;;;;11.28;56.54;99131.75;2248081;79;20938;-83
2022/05/02 05:30:03;;;;;;;12.73;8.70;;;;;;;11.54;56.28;99132.52;2248695;79;21338;-83
2022/05/02 05:33:04;;;;;;;15.63;9.03;;;;;;;11.75;56.11;99131.47;2249216;79;20935;-83
2022/05/02 05:36:04;;;;;;;15.00;8.93;;;;;;;12.00;55.72;99128.30;2249883;79;20947;-83
2022/05/02 05:39:04;;;;;;;12.78;8.40;;;;;;;12.10;55.24;99127.53;2249427;79;21299;-81
2022/05/02 05:42:07;;;;;;;12.88;8.25;;;;;;;12.41;54.73;99123.93;2248721;79;20949;-83
2022/05/02 05:45:07;;;;;;;15.90;8.10;;;;;;;12.57;54.32;99122.32;2249361;79;20991;-83
2022/05/02 05:48:08;;;;;;;13.88;7.87;;;;;;;12.81;53.83;99117.70;2248724;79;21270;-81
2022/05/02 05:51:08;;;;;;;14.58;8.68;;;;;;;13.02;53.35;99121.38;2248572;79;20982;-82
2022/05/02 05:54:08;;;;;;;28.62;8.93;;;;;;;13.26;52.79;99118.05;2248905;79;20951;-82
2022/05/02 05:57:09;;;;;;;31.27;8.95;;;;;;;13.59;52.29;99116.46;2248748;79;21303;-82
2022/05/02 06:00:09;;;;;;;24.23;8.68;;;;;;;13.88;51.54;99116.16;2248991;79;20998;-83
2022/05/02 06:03:10;;;;;;;12.98;7.42;;;;;;;14.24;51.30;99114.05;2248179;79;21030;-82
2022/05/02 06:06:10;;;;;;;11.90;6.83;;;;;;;14.67;50.64;99116.73;2247099;79;21884;-81
2022/05/02 06:09:11;;;;;;;12.43;7.37;;;;;;;14.94;49.93;99115.86;2245921;79;21073;-82
2022/05/02 06:12:11;;;;;;;13.30;7.55;;;;;;;15.22;49.34;99113.61;2244883;77;20967;-81
2022/05/02 06:18:30;;;;;;;8.90;6.78;;;;;;;16.02;48.38;99106.77;2248187;78;20931;-82
2022/05/02 06:21:30;;;;;;;44.55;10.03;;;;;;;16.21;47.56;99111.03;2247529;79;20951;-83
2022/05/02 06:24:31;;;;;;;21.00;6.67;;;;;;;16.56;46.72;99105.54;2248087;79;21365;-82
2022/05/02 06:27:31;;;;;;;21.23;6.83;;;;;;;16.94;44.70;99099.09;2247885;79;20955;-81
2022/05/02 06:30:32;;;;;;;18.52;6.35;;;;;;;17.24;42.58;99105.81;2247610;79;20936;-81
2022/05/02 06:33:35;;;;;;;18.20;5.20;;;;;;;17.58;41.08;99105.88;2248764;79;20956;-83
2022/05/02 06:36:35;;;;;;;13.03;4.40;;;;;;;17.81;40.15;99104.30;2248033;79;20954;-80
2022/05/02 06:39:36;;;;;;;13.40;5.47;;;;;;;17.92;38.98;99112.08;2248000;79;20925;-80
2022/05/02 06:42:36;;;;;;;27.15;8.28;;;;;;;18.12;37.56;99110.03;2247963;79;20908;-82
2022/05/02 06:45:36;;;;;;;16.67;5.90;;;;;;;18.32;37.96;99114.61;2248111;79;20962;-84
2022/05/02 06:48:37;;;;;;;8.58;5.12;;;;;;;18.66;36.64;99110.15;2247390;79;20998;-84
2022/05/02 06:51:37;;;;;;;9.35;4.72;;;;;;;18.83;36.32;99116.03;2247412;79;20943;-83
2022/05/02 06:54:38;;;;;;;8.05;4.97;;;;;;;19.03;35.82;99111.27;2248273;79;20939;-85
2022/05/02 06:57:38;;;;;;;32.50;7.60;;;;;;;19.37;35.40;99110.66;2247944;79;20895;-83
2022/05/02 07:00:38;;;;;;;5.87;4.35;;;;;;;19.90;35.10;99104.75;2248564;79;20959;-83
2022/05/02 07:03:39;;;;;;;6.08;4.22;;;;;;;20.37;33.27;99107.69;2248075;79;21312;-77
2022/05/02 07:06:39;;;;;;;4.58;3.80;;;;;;;20.62;32.61;99105.34;2246655;79;21373;-81
2022/05/02 07:09:40;;;;;;;108.35;9.15;;;;;;;20.88;32.12;99104.27;2248233;79;21022;-83
2022/05/02 07:12:40;;;;;;;50.73;6.90;;;;;;;21.11;31.97;99108.98;2254522;79;21085;-82
2022/05/02 07:15:42;;;;;;;17.27;4.97;;;;;;;21.22;31.84;99108.69;2260989;79;20927;-83
2022/05/02 07:18:45;;;;;;;9.73;4.28;;;;;;;21.05;30.23;99102.50;2260699;79;20985;-82
2022/05/02 07:21:44;;;;;;;10.58;3.95;;;;;;;20.79;30.54;99104.47;2260623;79;20930;-83
2022/05/02 07:24:45;;;;;;;3.85;3.45;;;;;;;20.56;30.81;99106.82;2261045;79;20958;-81
2022/05/02 07:27:45;;;;;;;5.33;3.47;;;;;;;20.38;31.26;99108.09;2261920;78;21349;-82
2022/05/02 07:30:47;;;;;;;24.72;3.80;;;;;;;20.19;31.14;99108.98;2230380;79;20987;-82
2022/05/02 07:33:48;;;;;;;53.50;6.50;;;;;;;20.20;31.28;99104.10;2261561;79;20961;-83
2022/05/02 07:36:48;;;;;;;21.12;4.90;;;;;;;20.34;31.06;99103.33;2262123;79;20919;-84
2022/05/02 07:39:49;;;;;;;15.20;4.50;;;;;;;20.61;30.56;99099.63;2263058;79;20943;-84
2022/05/02 07:42:51;;;;;;;7.50;3.47;;;;;;;20.75;30.10;99104.13;2262923;79;20935;-83
2022/05/02 07:45:51;;;;;;;19.37;4.67;;;;;;;20.99;29.77;99099.55;2262815;79;20939;-83
2022/05/02 07:48:51;;;;;;;4.70;2.92;;;;;;;21.15;29.96;99108.44;2262461;79;20969;-84
2022/05/02 07:51:52;;;;;;;21.42;4.65;;;;;;;20.89;30.18;99104.69;2260326;79;20919;-82
2022/05/02 07:54:52;;;;;;;12.28;4.30;;;;;;;20.96;30.20;99101.42;2261067;79;21318;-82
2022/05/02 07:57:55;;;;;;;7.35;3.83;;;;;;;21.17;29.57;99096.00;2262704;79;20907;-82
2022/05/02 08:00:55;;;;;;;7.65;3.60;;;;;;;21.26;28.58;99098.44;2231727;79;20958;-81
2022/05/02 08:03:55;;;;;;;135.68;13.05;;;;;;;21.28;28.68;99094.83;2262418;79;20915;-81
2022/05/02 08:06:56;;;;;;;4.72;3.60;;;;;;;21.36;28.52;99093.29;2262330;79;20931;-84
2022/05/02 08:09:56;;;;;;;6.87;4.20;;;;;;;21.50;28.26;99095.09;2262435;79;20978;-79
2022/05/02 08:12:57;;;;;;;15.78;4.45;;;;;;;21.51;27.05;99096.84;2260906;78;21030;-82
2022/05/02 08:15:57;;;;;;;4.53;4.12;;;;;;;21.47;27.24;99091.20;2261677;79;20982;-81
2022/05/02 08:18:57;;;;;;;13.08;4.17;;;;;;;21.42;28.04;99093.11;2261954;79;20931;-82
2022/05/02 08:27:15;;;;;;;4.97;4.47;;;;;;;21.58;27.69;99091.77;2262397;79;20911;-81
2022/05/02 08:28:17;;;;;;;5.53;4.30;;;;;;;21.71;26.95;99088.78;2263114;78;21030;-82
2022/05/02 08:31:17;;;;;;;16.97;3.83;;;;;;;21.80;26.77;99088.52;2263584;79;20979;-83
2022/05/02 08:34:18;;;;;;;5.30;3.60;;;;;;;21.82;26.34;99088.02;2263332;79;20883;-83
2022/05/02 08:37:18;;;;;;;61.20;6.30;;;;;;;21.91;26.53;99089.06;2263155;79;20915;-82
2022/05/02 08:40:19;;;;;;;12.23;4.55;;;;;;;21.99;26.05;99081.73;2262342;79;21128;-81
2022/05/02 08:43:19;;;;;;;19.20;5.10;;;;;;;22.17;26.22;99079.86;2262301;79;20880;-83
2022/05/02 08:46:19;;;;;;;4.15;3.52;;;;;;;22.25;26.44;99079.63;2262567;79;20927;-81
2022/05/02 08:49:38;;;;;;;8.90;4.47;;;;;;;22.37;26.33;99078.36;2262613;79;21027;-81
2022/05/02 08:52:35;;;;;;;5.83;3.95;;;;;;;22.39;25.55;99078.72;2262213;79;20938;-82
2022/05/02 08:55:36;;;;;;;123.82;11.35;;;;;;;22.13;25.90;99066.25;2262016;79;20989;-85
2022/05/02 08:58:37;;;;;;;7.25;3.55;;;;;;;22.22;26.52;99067.75;2262246;79;21005;-83
2022/05/02 09:01:37;;;;;;;6.62;3.50;;;;;;;22.34;25.29;99067.82;2262799;79;20947;-84
2022/05/02 09:04:37;;;;;;;6.85;3.30;;;;;;;22.51;25.58;99066.35;2262806;79;21283;-83
2022/05/02 09:07:37;;;;;;;6.90;3.65;;;;;;;22.74;24.90;99057.63;2262176;79;20947;-84
2022/05/02 09:10:38;;;;;;;6.00;3.50;;;;;;;22.87;24.99;99058.98;2262295;79;20982;-85
2022/05/02 09:13:38;;;;;;;6.20;3.30;;;;;;;23.00;24.26;99047.91;2262400;77;21326;-84
2022/05/02 09:16:39;;;;;;;5.10;3.67;;;;;;;23.02;23.90;99051.39;2262550;79;20938;-84
2022/05/02 09:19:39;;;;;;;5.10;3.45;;;;;;;22.80;23.00;99048.14;2263157;79;20959;-79
2022/05/02 09:22:40;;;;;;;4.92;2.90;;;;;;;22.66;23.31;99045.05;2262981;79;21377;-83
2022/05/02 09:25:40;;;;;;;7.00;3.50;;;;;;;22.71;23.29;99044.44;2262654;79;20892;-82
2022/05/02 09:28:40;;;;;;;4.33;3.30;;;;;;;22.72;23.34;99043.51;2262332;79;20938;-82
2022/05/02 09:31:41;;;;;;;3.77;2.98;;;;;;;22.87;23.28;99040.81;2261647;79;20903;-80
2022/05/02 09:34:41;;;;;;;8.98;3.05;;;;;;;23.09;23.04;99044.92;2262582;79;20974;-82
2022/05/02 09:37:44;;;;;;;15.98;4.05;;;;;;;23.09;23.02;99035.14;2230847;79;20986;-84
2022/05/02 09:40:47;;;;;;;7.83;3.30;;;;;;;23.39;22.04;99033.62;2263704;79;20915;-83
2022/05/02 09:50:25;;;;;;;4.20;3.80;;;;;;;23.64;21.76;99022.51;2263109;78;20958;-82
2022/05/02 09:53:26;;;;;;;4.10;3.70;;;;;;;23.72;21.42;99020.88;2262772;79;20891;-80
2022/05/02 09:56:38;;;;;;;4.78;3.42;;;;;;;23.63;21.16;99015.91;2262915;79;20927;-80
2022/05/02 09:59:38;;;;;;;6.15;3.17;;;;;;;23.55;21.98;99021.98;2263016;79;20934;-81
2022/05/02 10:02:39;;;;;;;4.40;3.58;;;;;;;23.60;21.89;99017.35;2263865;79;20915;-81
2022/05/02 10:05:39;;;;;;;8.60;3.25;;;;;;;23.79;22.13;99011.72;2263511;79;20879;-81
2022/05/02 10:08:40;;;;;;;8.45;3.92;;;;;;;24.14;21.68;99011.19;2262347;79;20994;-81
2022/05/02 10:11:40;;;;;;;10.53;3.50;;;;;;;24.37;21.11;99006.77;2263221;77;20942;-82
2022/05/02 10:14:40;;;;;;;8.28;3.90;;;;;;;24.56;21.40;98996.19;2264052;79;20961;-81
2022/05/02 10:17:41;;;;;;;7.28;3.47;;;;;;;24.81;21.28;98994.20;2263238;79;20927;-80
2022/05/02 10:20:41;;;;;;;4.03;3.62;;;;;;;24.86;20.75;98995.34;2263485;79;20962;-81
2022/05/02 10:23:42;;;;;;;4.72;3.42;;;;;;;24.94;20.62;98991.86;2263107;79;21377;-81
2022/05/02 10:26:44;;;;;;;4.58;3.60;;;;;;;24.85;20.56;98992.27;2262022;79;20923;-82
2022/05/02 10:29:42;;;;;;;4.03;3.47;;;;;;;24.74;20.27;98984.73;2260902;79;20966;-79
2022/05/02 10:32:46;;;;;;;3.70;3.40;;;;;;;24.64;20.88;98984.26;2261480;79;20962;-80
2022/05/02 10:35:46;;;;;;;9.20;3.87;;;;;;;24.97;20.81;98975.27;2262402;79;20962;-81
2022/05/02 10:38:46;;;;;;;3.22;2.85;;;;;;;25.26;19.89;98971.31;2262407;79;21001;-81
2022/05/02 10:41:47;;;;;;;5.15;3.20;;;;;;;25.56;19.82;98969.50;2263046;79;21303;-79
2022/05/02 10:44:47;;;;;;;6.92;3.70;;;;;;;25.84;19.86;98966.41;2262093;79;20928;-82
2022/05/02 10:47:48;;;;;;;5.17;3.67;;;;;;;26.23;19.38;98964.95;2262500;79;20991;-80
2022/05/02 10:50:48;;;;;;;44.25;5.50;;;;;;;26.31;19.19;98958.75;2261615;79;21900;-81
2022/05/02 10:53:48;;;;;;;11.95;3.47;;;;;;;26.16;18.77;98954.16;2261273;79;20958;-80
2022/05/02 10:56:49;;;;;;;6.08;2.92;;;;;;;25.79;19.44;98959.95;2260651;79;21005;-82
2022/05/02 10:59:49;;;;;;;3.80;3.35;;;;;;;25.34;19.38;98951.80;2260663;79;21587;-82
2022/05/02 11:02:50;;;;;;;6.80;4.00;;;;;;;24.94;19.57;98955.34;2260660;79;20931;-81
2022/05/02 11:05:50;;;;;;;5.78;3.42;;;;;;;24.63;19.88;98953.16;2261505;78;20940;-82
2022/05/02 11:08:51;;;;;;;5.85;3.25;;;;;;;24.28;19.39;98952.00;2261303;79;21036;-81
2022/05/02 11:11:51;;;;;;;9.13;7.17;;;;;;;23.82;20.47;98942.30;2261360;79;21417;-80
2022/05/02 11:14:51;;;;;;;4.72;3.33;;;;;;;23.59;21.06;98944.55;2261126;77;20978;-82
2022/05/02 11:17:52;;;;;;;39.58;5.70;;;;;;;23.42;21.15;98943.83;2260874;79;21325;-81
2022/05/02 11:20:52;;;;;;;5.83;3.35;;;;;;;23.39;21.36;98942.59;2260699;79;20922;-80
2022/05/02 11:23:52;;;;;;;4.70;3.35;;;;;;;23.38;22.04;98943.98;2261973;79;20903;-80
2022/05/02 11:26:53;;;;;;;3.83;3.12;;;;;;;23.20;21.82;98946.88;2261246;79;21286;-80
2022/05/02 11:29:53;;;;;;;7.80;3.00;;;;;;;23.12;21.82;98939.64;2261863;79;20991;-80
2022/05/02 11:32:54;;;;;;;8.35;3.40;;;;;;;23.05;21.73;98941.66;2261541;79;21334;-80
2022/05/02 11:35:54;;;;;;;5.80;3.40;;;;;;;22.88;22.26;98942.75;2261610;79;20939;-83
2022/05/02 11:38:56;;;;;;;3.40;3.00;;;;;;;23.04;22.65;98940.39;2262496;79;20990;-80
2022/05/02 11:41:57;;;;;;;5.95;3.30;;;;;;;23.23;22.08;98936.11;2262979;79;21255;-81
2022/05/02 11:44:58;;;;;;;6.25;3.50;;;;;;;23.32;22.10;98933.09;2262133;79;20950;-80
2022/05/02 11:47:58;;;;;;;4.12;3.30;;;;;;;23.64;21.53;98929.70;2261928;79;20950;-82
2022/05/02 11:50:59;;;;;;;7.90;3.12;;;;;;;23.25;21.14;98931.59;2261222;79;20963;-81
2022/05/02 11:53:59;;;;;;;5.70;3.35;;;;;;;22.94;21.72;98927.02;2262356;79;20970;-80
2022/05/02 11:56:59;;;;;;;5.92;4.30;;;;;;;22.79;22.21;98928.41;2262436;79;20899;-81
2022/05/02 12:00:05;;;;;;;9.23;3.67;;;;;;;22.57;22.28;98928.31;2262621;79;20923;-78
2022/05/02 12:03:07;;;;;;;4.53;3.42;;;;;;;22.22;22.13;98929.03;2261623;79;20939;-81
2022/05/02 12:06:05;;;;;;;4.70;3.05;;;;;;;22.02;22.19;98923.48;2228502;79;20954;-78
2022/05/02 12:09:08;;;;;;;4.80;3.50;;;;;;;21.89;22.35;98927.00;2259261;79;21413;-79
2022/05/02 12:12:07;;;;;;;5.10;3.20;;;;;;;21.77;23.03;98926.53;2259552;79;21011;-80
2022/05/02 12:15:12;;;;;;;3.75;3.10;;;;;;;21.84;23.28;98912.13;2258495;77;20963;-80
2022/05/02 12:18:10;;;;;;;5.83;3.45;;;;;;;21.90;22.87;98913.27;2259392;79;20938;-79
2022/05/02 12:21:10;;;;;;;5.45;3.15;;;;;;;21.93;22.85;98914.48;2259501;79;20954;-80
2022/05/02 12:24:11;;;;;;;5.47;3.45;;;;;;;22.01;22.68;98913.77;2258999;79;20934;-80
2022/05/02 12:27:12;;;;;;;3.40;3.10;;;;;;;22.10;22.65;98907.31;2258244;79;20961;-80
2022/05/02 12:30:11;;;;;;;4.47;3.25;;;;;;;22.21;22.31;98902.05;2258862;79;21029;-80
2022/05/02 12:33:12;;;;;;;3.55;3.22;;;;;;;22.41;22.18;98895.16;2259610;78;21002;-78
2022/05/02 12:36:12;;;;;;;6.53;3.02;;;;;;;22.60;21.88;98884.77;2258737;79;20935;-79
2022/05/02 12:39:13;;;;;;;4.00;2.90;;;;;;;22.72;21.39;98889.18;2258406;79;20981;-81
2022/05/02 12:42:15;;;;;;;6.22;3.50;;;;;;;22.70;21.24;98887.04;2259352;79;21216;-80
2022/05/02 12:45:14;;;;;;;4.92;2.95;;;;;;;22.81;21.32;98883.55;2259132;79;21507;-81
2022/05/02 12:48:14;;;;;;;4.05;3.22;;;;;;;22.91;21.20;98882.75;2259119;79;20966;-79
2022/05/02 12:51:15;;;;;;;7.25;3.00;;;;;;;22.83;21.46;98877.71;2259691;79;20992;-80
2022/05/02 12:54:15;;;;;;;7.28;3.50;;;;;;;22.74;21.29;98876.69;2260071;79;21322;-81
2022/05/02 13:00:36;;;;;;;4.08;3.15;;;;;;;22.70;21.90;98873.73;2262423;78;20991;-80
2022/05/02 13:03:35;;;;;;;5.60;3.00;;;;;;;22.76;22.26;98872.17;2262358;79;20958;-80
2022/05/02 13:06:35;;;;;;;3.70;2.92;;;;;;;22.84;21.67;98870.13;2260164;79;21349;-80
2022/05/02 13:09:35;;;;;;;4.00;2.98;;;;;;;22.98;21.40;98861.62;2259636;79;21062;-81
2022/05/02 13:12:36;;;;;;;3.72;3.42;;;;;;;23.13;21.38;98861.50;2261106;79;20934;-81
2022/05/02 13:15:36;;;;;;;5.30;3.30;;;;;;;23.11;20.95;98859.36;2259687;79;21337;-80
2022/05/02 13:18:37;;;;;;;4.58;2.98;;;;;;;22.93;21.33;98857.41;2259620;79;20946;-80
2022/05/02 13:21:37;;;;;;;7.67;3.20;;;;;;;22.84;21.60;98857.29;2260453;79;20993;-82
2022/05/02 13:24:37;;;;;;;3.60;3.15;;;;;;;22.66;21.59;98849.50;2259938;79;21567;-80
2022/05/02 13:27:38;;;;;;;3.67;3.30;;;;;;;22.72;21.73;98845.73;2260426;79;20895;-82
2022/05/02 13:30:38;;;;;;;5.33;3.77;;;;;;;22.82;21.69;98845.83;2260656;79;20966;-82
2022/05/02 13:33:39;;;;;;;4.12;3.15;;;;;;;22.74;21.80;98848.75;2259750;79;20986;-81
2022/05/02 13:36:39;;;;;;;4.58;3.30;;;;;;;22.65;21.44;98845.09;2261082;79;20907;-82
2022/05/02 13:39:39;;;;;;;9.93;4.03;;;;;;;22.67;22.20;98840.59;2259852;79;20998;-82
2022/05/02 13:42:40;;;;;;;6.25;3.92;;;;;;;22.40;22.33;98846.89;2260451;79;21644;-82
2022/05/02 13:45:43;;;;;;;6.00;3.40;;;;;;;22.04;22.85;98843.73;2261244;79;20997;-81
2022/05/02 13:48:44;;;;;;;5.50;3.15;;;;;;;21.67;22.50;98842.25;2261342;79;20941;-83
2022/05/02 13:51:44;;;;;;;7.83;3.37;;;;;;;21.54;22.47;98837.80;2261042;79;20998;-82
2022/05/02 13:54:44;;;;;;;5.62;3.50;;;;;;;21.54;22.83;98838.26;2262174;79;20899;-83
2022/05/02 13:57:45;;;;;;;8.78;3.42;;;;;;;21.83;24.11;98833.34;2262259;79;20934;-81
2022/05/02 14:04:17;;;;;;;13.32;4.05;;;;;;;21.94;21.82;98826.73;2261700;79;20962;-82
2022/05/02 14:07:14;;;;;;;3.75;3.42;;;;;;;22.07;21.95;98828.55;2262074;79;21398;-81
2022/05/02 14:10:05;;;;;;;4.67;3.62;;;;;;;22.34;22.19;98827.16;2262225;79;20939;-82
2022/05/02 14:13:05;;;;;;;5.22;3.20;;;;;;;22.29;22.30;98830.45;2260002;78;20986;-81
2022/05/02 14:16:05;;;;;;;5.22;3.25;;;;;;;22.61;22.67;98826.64;2246134;79;21359;-80
2022/05/02 14:19:08;;;;;;;4.40;3.40;;;;;;;22.68;21.92;98817.52;2245668;79;21002;-80
2022/05/02 14:22:06;;;;;;;7.40;3.35;;;;;;;23.05;23.21;98815.20;2245967;79;20978;-83
2022/05/02 14:25:06;;;;;;;12.13;4.30;;;;;;;23.47;21.74;98812.66;2247062;79;21298;-81
2022/05/02 14:28:07;;;;;;;5.45;3.45;;;;;;;23.55;22.49;98811.05;2246170;79;21006;-81
2022/05/02 14:31:07;;;;;;;4.78;3.22;;;;;;;23.80;22.05;98812.22;2246456;79;21010;-81
2022/05/02 14:34:07;;;;;;;4.20;3.10;;;;;;;23.75;20.88;98804.88;2248093;79;21377;-81